Time;durP1;ratioP1;P1;durP2;ratioP2;P2;SDS_P1;SDS_P2;PMS_P1;PMS_P2;Temp;Humidity;BMP_temperature;BMP_pressure;BME280_temperature;BME280_humidity;BME280_pressure;Samples;Min_cycle;Max_cycle;Signal;HPM_P1;HPM_P2
2022/03/20 00:00:42;;;;;;;26.92;13.85;;;;;;;;;;4994122;28;20169;-53
2022/03/20 00:03:12;;;;;;;29.38;14.95;;;;;;;;;;4994223;28;20164;-49
2022/03/20 00:05:40;;;;;;;29.17;14.30;;;;;;;;;;4994065;28;20419;-51
2022/03/20 00:08:11;;;;;;;24.95;13.00;;;;;;;;;;4994300;28;20073;-53
2022/03/20 00:10:38;;;;;;;34.97;18.63;;;;;;;;;;4994323;28;20022;-54
2022/03/20 00:13:08;;;;;;;28.20;15.30;;;;;;;;;;4993538;28;20077;-52
2022/03/20 00:15:34;;;;;;;24.00;12.60;;;;;;;;;;4993900;28;20372;-52
2022/03/20 00:18:00;;;;;;;24.33;12.80;;;;;;;;;;4993611;28;20033;-53
2022/03/20 00:20:27;;;;;;;27.30;11.65;;;;;;;;;;4993017;28;20084;-51
2022/03/20 00:22:57;;;;;;;21.73;12.00;;;;;;;;;;4994497;28;20053;-55
2022/03/20 00:25:26;;;;;;;24.00;12.52;;;;;;;;;;4992841;28;20037;-52
2022/03/20 00:27:52;;;;;;;23.65;11.95;;;;;;;;;;4993843;28;20081;-54
2022/03/20 00:30:18;;;;;;;22.23;11.57;;;;;;;;;;4993654;28;20131;-52
2022/03/20 00:32:44;;;;;;;21.27;11.15;;;;;;;;;;4993944;28;20026;-55
2022/03/20 00:35:11;;;;;;;19.88;10.90;;;;;;;;;;4993851;28;20022;-53
2022/03/20 00:37:37;;;;;;;22.63;11.93;;;;;;;;;;4993600;28;20066;-55
2022/03/20 00:40:03;;;;;;;20.52;10.75;;;;;;;;;;4994014;28;20026;-55
2022/03/20 00:42:29;;;;;;;22.95;10.70;;;;;;;;;;4994355;28;20459;-53
2022/03/20 00:44:55;;;;;;;20.15;10.27;;;;;;;;;;4993500;28;20026;-49
2022/03/20 00:47:22;;;;;;;20.65;10.93;;;;;;;;;;4993860;28;20035;-55
2022/03/20 00:49:48;;;;;;;22.80;12.10;;;;;;;;;;4994288;28;20105;-52
2022/03/20 00:52:14;;;;;;;24.70;12.52;;;;;;;;;;4993750;28;20054;-53
2022/03/20 00:54:40;;;;;;;27.30;14.20;;;;;;;;;;4993704;28;20412;-55
2022/03/20 00:57:07;;;;;;;30.25;14.35;;;;;;;;;;4993713;28;20053;-55
2022/03/20 00:59:33;;;;;;;24.10;13.90;;;;;;;;;;4992195;28;20050;-53
2022/03/20 01:01:59;;;;;;;27.77;13.32;;;;;;;;;;4993679;28;20391;-51
2022/03/20 01:04:26;;;;;;;25.45;12.73;;;;;;;;;;4993630;28;20022;-55
2022/03/20 01:06:55;;;;;;;27.48;13.27;;;;;;;;;;4993430;28;20498;-55
2022/03/20 01:09:22;;;;;;;25.40;12.52;;;;;;;;;;4993818;28;20050;-56
2022/03/20 01:11:48;;;;;;;20.70;11.65;;;;;;;;;;4993794;28;20026;-51
2022/03/20 01:14:14;;;;;;;24.73;12.50;;;;;;;;;;4993516;28;20022;-56
2022/03/20 01:16:41;;;;;;;23.98;12.20;;;;;;;;;;4993824;28;20367;-56
2022/03/20 01:19:07;;;;;;;48.45;23.83;;;;;;;;;;4993227;28;20463;-58
2022/03/20 01:21:33;;;;;;;27.98;13.60;;;;;;;;;;4993394;28;20525;-56
2022/03/20 01:23:59;;;;;;;23.33;12.95;;;;;;;;;;4993400;28;20022;-54
2022/03/20 01:26:25;;;;;;;20.90;12.10;;;;;;;;;;4996425;28;20025;-55
2022/03/20 01:28:51;;;;;;;31.75;14.63;;;;;;;;;;4997221;28;20038;-55
2022/03/20 01:31:17;;;;;;;37.08;16.25;;;;;;;;;;4997158;28;20019;-54
2022/03/20 01:33:44;;;;;;;29.13;14.50;;;;;;;;;;4996496;28;20026;-50
2022/03/20 01:36:10;;;;;;;25.27;13.73;;;;;;;;;;4997014;28;20027;-52
2022/03/20 01:38:36;;;;;;;24.98;12.85;;;;;;;;;;4996979;28;20026;-56
2022/03/20 01:41:02;;;;;;;24.58;12.45;;;;;;;;;;4996825;28;20028;-55
2022/03/20 01:43:28;;;;;;;24.60;12.32;;;;;;;;;;4996840;28;20058;-57
2022/03/20 01:45:54;;;;;;;22.15;11.90;;;;;;;;;;4996600;28;20019;-53
2022/03/20 01:48:20;;;;;;;20.65;11.00;;;;;;;;;;4996501;28;20031;-53
2022/03/20 01:50:47;;;;;;;19.08;11.02;;;;;;;;;;4996811;28;20031;-54
2022/03/20 01:53:13;;;;;;;23.80;10.98;;;;;;;;;;4996739;28;20030;-57
2022/03/20 01:55:39;;;;;;;20.88;10.65;;;;;;;;;;4996294;28;20030;-53
2022/03/20 01:58:05;;;;;;;19.92;10.43;;;;;;;;;;4996894;28;20050;-52
2022/03/20 02:00:32;;;;;;;22.15;11.15;;;;;;;;;;4996629;28;20030;-55
2022/03/20 02:02:59;;;;;;;21.40;11.55;;;;;;;;;;4996323;28;20022;-56
2022/03/20 02:05:25;;;;;;;26.58;11.80;;;;;;;;;;4996179;28;20029;-54
2022/03/20 02:07:52;;;;;;;20.05;11.38;;;;;;;;;;4996685;28;20371;-54
2022/03/20 02:10:18;;;;;;;19.27;11.13;;;;;;;;;;4996052;28;20033;-55
2022/03/20 02:12:45;;;;;;;21.48;11.02;;;;;;;;;;4996401;28;20371;-55
2022/03/20 02:15:12;;;;;;;19.10;10.88;;;;;;;;;;4996046;28;20026;-54
2022/03/20 02:17:40;;;;;;;16.55;10.02;;;;;;;;;;4996267;28;20110;-52
2022/03/20 02:20:08;;;;;;;17.85;10.13;;;;;;;;;;4996259;28;20026;-52
2022/03/20 02:22:52;;;;;;;18.75;10.82;;;;;;;;;;4995872;28;20499;-56
2022/03/20 02:25:19;;;;;;;18.20;10.07;;;;;;;;;;4995907;28;20544;-56
2022/03/20 02:27:45;;;;;;;21.15;10.82;;;;;;;;;;4995658;28;20030;-57
2022/03/20 02:30:14;;;;;;;18.92;10.35;;;;;;;;;;4995512;28;20022;-58
2022/03/20 02:32:44;;;;;;;20.15;10.35;;;;;;;;;;4996204;28;20468;-55
2022/03/20 02:35:14;;;;;;;19.25;10.35;;;;;;;;;;4995962;28;20033;-51
2022/03/20 02:37:42;;;;;;;22.50;10.63;;;;;;;;;;4994914;28;20023;-56
2022/03/20 02:40:08;;;;;;;20.58;10.07;;;;;;;;;;4996012;28;20387;-55
2022/03/20 02:42:38;;;;;;;23.70;11.23;;;;;;;;;;4996117;28;20029;-56
2022/03/20 02:45:08;;;;;;;20.20;11.15;;;;;;;;;;4995240;28;20098;-57
2022/03/20 02:47:41;;;;;;;19.88;11.05;;;;;;;;;;4995601;28;20038;-55
2022/03/20 02:50:09;;;;;;;22.60;11.15;;;;;;;;;;4995458;28;20150;-55
2022/03/20 02:52:46;;;;;;;22.17;11.77;;;;;;;;;;4995449;28;20019;-56
2022/03/20 02:55:13;;;;;;;26.23;13.27;;;;;;;;;;4995435;28;20464;-54
2022/03/20 02:57:39;;;;;;;30.52;13.32;;;;;;;;;;4995138;28;20058;-55
2022/03/20 03:00:06;;;;;;;24.38;12.30;;;;;;;;;;4995268;28;20050;-55
2022/03/20 03:02:37;;;;;;;28.88;13.77;;;;;;;;;;4995389;28;20023;-56
2022/03/20 03:05:03;;;;;;;27.38;13.10;;;;;;;;;;4995532;28;20060;-55
2022/03/20 03:07:30;;;;;;;20.63;11.05;;;;;;;;;;4995289;28;20029;-54
2022/03/20 03:12:41;;;;;;;24.35;12.43;;;;;;;;;;4994726;28;20029;-57
2022/03/20 03:15:20;;;;;;;28.67;12.52;;;;;;;;;;4995462;28;20022;-57
2022/03/20 03:17:47;;;;;;;24.42;12.73;;;;;;;;;;4995130;28;20034;-52
2022/03/20 03:20:13;;;;;;;27.38;13.02;;;;;;;;;;4994536;28;20022;-53
2022/03/20 03:22:40;;;;;;;28.00;12.48;;;;;;;;;;4995067;28;20035;-55
2022/03/20 03:25:06;;;;;;;23.83;11.63;;;;;;;;;;4994848;28;20371;-55
2022/03/20 03:27:32;;;;;;;20.40;10.45;;;;;;;;;;4994901;28;20041;-52
2022/03/20 03:29:58;;;;;;;19.42;9.68;;;;;;;;;;4994674;28;20023;-53
2022/03/20 03:32:25;;;;;;;20.77;9.60;;;;;;;;;;4994563;28;20026;-52
2022/03/20 03:37:36;;;;;;;23.35;11.80;;;;;;;;;;4994900;28;20045;-50
2022/03/20 03:40:04;;;;;;;39.83;18.20;;;;;;;;;;4994462;28;20077;-48
2022/03/20 03:42:30;;;;;;;41.55;22.65;;;;;;;;;;4994428;28;20026;-50
2022/03/20 03:44:57;;;;;;;40.90;20.77;;;;;;;;;;4994060;28;20026;-52
2022/03/20 03:47:24;;;;;;;30.10;14.85;;;;;;;;;;4994257;28;20430;-51
2022/03/20 03:49:50;;;;;;;52.72;27.70;;;;;;;;;;4994370;28;20030;-49
2022/03/20 03:52:16;;;;;;;33.90;18.75;;;;;;;;;;4994313;28;20032;-51
2022/03/20 03:54:43;;;;;;;36.42;18.60;;;;;;;;;;4993990;28;20026;-52
2022/03/20 03:57:09;;;;;;;30.38;14.98;;;;;;;;;;4994083;28;20483;-52
2022/03/20 03:59:36;;;;;;;139.10;62.10;;;;;;;;;;4994474;28;20076;-50
2022/03/20 04:02:02;;;;;;;114.72;52.88;;;;;;;;;;4994222;28;20026;-49
2022/03/20 04:04:28;;;;;;;29.63;15.95;;;;;;;;;;4994494;28;20033;-50
2022/03/20 04:06:55;;;;;;;120.65;57.42;;;;;;;;;;4994109;28;20391;-53
2022/03/20 04:09:21;;;;;;;20.63;12.13;;;;;;;;;;4994173;28;20030;-50
2022/03/20 04:11:48;;;;;;;21.33;11.30;;;;;;;;;;4994229;28;20078;-50
2022/03/20 04:14:14;;;;;;;18.85;9.90;;;;;;;;;;4994185;28;20041;-53
2022/03/20 04:16:40;;;;;;;26.02;12.63;;;;;;;;;;4994071;28;20022;-54
2022/03/20 04:19:07;;;;;;;26.85;14.00;;;;;;;;;;4994858;28;20030;-48
2022/03/20 04:21:33;;;;;;;37.63;20.65;;;;;;;;;;4993873;28;20053;-49
2022/03/20 04:23:59;;;;;;;23.73;13.35;;;;;;;;;;4993973;28;20031;-53
2022/03/20 04:26:26;;;;;;;17.83;9.50;;;;;;;;;;4994231;28;20467;-51
2022/03/20 04:28:53;;;;;;;28.50;13.45;;;;;;;;;;4993840;28;20121;-52
2022/03/20 04:31:20;;;;;;;40.13;18.48;;;;;;;;;;4994071;28;20019;-51
2022/03/20 04:33:48;;;;;;;25.55;12.80;;;;;;;;;;4992971;28;20186;-51
2022/03/20 04:36:14;;;;;;;21.35;11.18;;;;;;;;;;4993805;28;20023;-49
2022/03/20 04:38:41;;;;;;;19.15;11.02;;;;;;;;;;4994416;28;20387;-50
2022/03/20 04:41:07;;;;;;;26.77;11.63;;;;;;;;;;4993705;28;20200;-53
2022/03/20 04:43:34;;;;;;;22.65;11.35;;;;;;;;;;4993912;28;20028;-50
2022/03/20 04:46:00;;;;;;;56.25;30.13;;;;;;;;;;4994060;28;20026;-51
2022/03/20 04:59:26;;;;;;;49.50;24.73;;;;;;;;;;4993895;28;20041;-48
2022/03/20 05:01:52;;;;;;;59.75;31.08;;;;;;;;;;4997696;28;20442;-50
2022/03/20 05:04:18;;;;;;;88.85;48.92;;;;;;;;;;4997092;28;20019;-52
2022/03/20 05:06:44;;;;;;;103.90;60.45;;;;;;;;;;4997623;28;20077;-53
2022/03/20 05:14:40;;;;;;;64.88;41.28;;;;;;;;;;4997503;28;20057;-51
2022/03/20 05:17:10;;;;;;;70.10;43.88;;;;;;;;;;4996860;28;20027;-52
2022/03/20 05:19:36;;;;;;;67.72;43.33;;;;;;;;;;4997022;28;20095;-56
2022/03/20 05:22:03;;;;;;;34.38;20.33;;;;;;;;;;4995961;28;20046;-49
2022/03/20 05:24:30;;;;;;;34.17;17.58;;;;;;;;;;4996946;28;20106;-50
2022/03/20 05:26:56;;;;;;;29.95;15.88;;;;;;;;;;4996138;28;20073;-50
2022/03/20 05:29:22;;;;;;;30.15;17.30;;;;;;;;;;4997080;28;20036;-51
2022/03/20 05:31:49;;;;;;;30.92;15.63;;;;;;;;;;4996824;28;20022;-50
2022/03/20 05:34:16;;;;;;;28.70;15.73;;;;;;;;;;4996751;28;20542;-51
2022/03/20 05:36:43;;;;;;;24.48;14.23;;;;;;;;;;4997557;28;20053;-53
2022/03/20 05:39:09;;;;;;;26.75;14.65;;;;;;;;;;4996728;28;20117;-50
2022/03/20 05:41:48;;;;;;;22.23;12.15;;;;;;;;;;4996539;28;20021;-52
2022/03/20 05:44:24;;;;;;;27.30;14.98;;;;;;;;;;4997538;28;20403;-50
2022/03/20 05:46:51;;;;;;;28.83;16.63;;;;;;;;;;4996637;28;20085;-50
2022/03/20 05:49:20;;;;;;;30.55;17.73;;;;;;;;;;4996514;28;20057;-53
2022/03/20 05:51:47;;;;;;;33.83;19.08;;;;;;;;;;4996546;28;20105;-55
2022/03/20 05:54:15;;;;;;;34.13;18.60;;;;;;;;;;4996105;28;20471;-52
2022/03/20 05:59:26;;;;;;;50.78;24.35;;;;;;;;;;4996246;28;20066;-52
2022/03/20 06:01:52;;;;;;;47.30;23.65;;;;;;;;;;4996847;28;20053;-55
2022/03/20 06:04:19;;;;;;;40.67;19.73;;;;;;;;;;4996459;28;20048;-56
2022/03/20 06:06:45;;;;;;;26.50;16.20;;;;;;;;;;4996348;28;20093;-50
2022/03/20 06:09:11;;;;;;;33.35;15.82;;;;;;;;;;4995625;28;20038;-50
2022/03/20 06:11:38;;;;;;;28.85;15.90;;;;;;;;;;4995834;28;20048;-54
2022/03/20 06:14:09;;;;;;;26.40;15.55;;;;;;;;;;4995651;28;20031;-55
2022/03/20 06:16:35;;;;;;;27.73;14.77;;;;;;;;;;4995981;28;20487;-53
2022/03/20 06:19:02;;;;;;;27.50;14.32;;;;;;;;;;4996025;28;20052;-55
2022/03/20 06:21:28;;;;;;;25.73;14.05;;;;;;;;;;4995619;28;20034;-53
2022/03/20 06:23:56;;;;;;;27.70;13.93;;;;;;;;;;4995896;28;20026;-54
2022/03/20 06:26:23;;;;;;;22.92;12.73;;;;;;;;;;4996313;28;20033;-53
2022/03/20 06:28:50;;;;;;;25.05;13.60;;;;;;;;;;4995397;28;20475;-52
2022/03/20 06:31:17;;;;;;;22.65;13.70;;;;;;;;;;4996074;28;20175;-52
2022/03/20 06:33:49;;;;;;;26.35;16.58;;;;;;;;;;4995987;28;20022;-53
2022/03/20 06:36:16;;;;;;;19.15;11.73;;;;;;;;;;4995084;28;20049;-52
2022/03/20 06:38:42;;;;;;;19.20;10.20;;;;;;;;;;4995118;28;20022;-47
2022/03/20 06:41:09;;;;;;;20.58;10.57;;;;;;;;;;4995570;28;20037;-63
2022/03/20 06:43:36;;;;;;;22.92;10.80;;;;;;;;;;4995501;28;20414;-53
2022/03/20 06:46:04;;;;;;;24.65;11.75;;;;;;;;;;4995467;28;20490;-57
2022/03/20 06:48:30;;;;;;;18.35;9.93;;;;;;;;;;4995331;28;20548;-54
2022/03/20 06:50:56;;;;;;;24.83;12.50;;;;;;;;;;4995359;28;20036;-55
2022/03/20 06:53:22;;;;;;;19.83;9.90;;;;;;;;;;4995145;28;20426;-54
2022/03/20 06:55:49;;;;;;;16.35;10.23;;;;;;;;;;4994882;28;20030;-52
2022/03/20 06:58:17;;;;;;;17.00;9.65;;;;;;;;;;4994155;28;20057;-52
2022/03/20 07:00:43;;;;;;;17.27;10.27;;;;;;;;;;4995430;28;20019;-57
2022/03/20 07:03:10;;;;;;;18.13;10.40;;;;;;;;;;4993659;28;20022;-53
2022/03/20 07:05:37;;;;;;;20.95;10.63;;;;;;;;;;4994451;28;20023;-54
2022/03/20 07:08:07;;;;;;;16.02;8.55;;;;;;;;;;4993191;28;20089;-57
2022/03/20 07:10:53;;;;;;;17.70;8.77;;;;;;;;;;4993557;28;20040;-60
2022/03/20 07:16:04;;;;;;;32.15;14.45;;;;;;;;;;4991139;28;20041;-53
2022/03/20 07:18:31;;;;;;;22.13;11.25;;;;;;;;;;4993646;28;20041;-55
2022/03/20 07:20:58;;;;;;;16.25;7.90;;;;;;;;;;4993262;28;20034;-52
2022/03/20 07:23:24;;;;;;;22.02;11.18;;;;;;;;;;4992686;28;20022;-50
2022/03/20 07:31:20;;;;;;;16.30;9.70;;;;;;;;;;4991753;28;20033;-52
2022/03/20 07:33:48;;;;;;;16.13;8.88;;;;;;;;;;4993087;28;20113;-54
2022/03/20 07:36:14;;;;;;;17.50;9.32;;;;;;;;;;4992811;28;20023;-54
2022/03/20 07:38:40;;;;;;;14.43;8.50;;;;;;;;;;4991198;28;20033;-58
2022/03/20 07:41:07;;;;;;;12.52;7.68;;;;;;;;;;4991353;28;20480;-58
2022/03/20 07:43:34;;;;;;;16.15;8.73;;;;;;;;;;4993467;28;20565;-58
2022/03/20 07:46:06;;;;;;;15.50;8.82;;;;;;;;;;4992786;28;20026;-61
2022/03/20 07:48:33;;;;;;;13.38;7.50;;;;;;;;;;4990274;28;20053;-54
2022/03/20 07:50:59;;;;;;;12.30;7.50;;;;;;;;;;4991477;28;20018;-51
2022/03/20 07:53:26;;;;;;;14.68;8.93;;;;;;;;;;4991981;28;20430;-56
2022/03/20 07:55:53;;;;;;;13.50;8.02;;;;;;;;;;4990434;28;20022;-55
2022/03/20 07:58:20;;;;;;;13.13;7.70;;;;;;;;;;4993399;28;20105;-53
2022/03/20 08:00:46;;;;;;;21.70;8.95;;;;;;;;;;4993232;28;20374;-55
2022/03/20 08:03:12;;;;;;;11.70;6.50;;;;;;;;;;4993201;28;20022;-55
2022/03/20 08:05:39;;;;;;;11.15;7.00;;;;;;;;;;4992609;28;20475;-56
2022/03/20 08:08:05;;;;;;;16.85;8.88;;;;;;;;;;4994011;28;20054;-56
2022/03/20 08:10:31;;;;;;;13.75;6.95;;;;;;;;;;4993595;28;20014;-51
2022/03/20 08:12:58;;;;;;;12.52;6.50;;;;;;;;;;4993579;28;20486;-56
2022/03/20 08:15:24;;;;;;;7.10;4.55;;;;;;;;;;4993873;28;20550;-53
2022/03/20 08:17:51;;;;;;;14.25;5.43;;;;;;;;;;4993978;28;20023;-54
2022/03/20 08:20:18;;;;;;;8.48;4.75;;;;;;;;;;4993660;28;20054;-55
2022/03/20 08:22:44;;;;;;;8.57;4.47;;;;;;;;;;4994180;28;20018;-52
2022/03/20 08:25:11;;;;;;;12.48;5.57;;;;;;;;;;4993784;28;20023;-54
2022/03/20 08:27:47;;;;;;;11.40;5.28;;;;;;;;;;4993568;28;20089;-52
2022/03/20 08:30:17;;;;;;;11.95;5.10;;;;;;;;;;4994082;28;20054;-54
2022/03/20 08:32:47;;;;;;;10.35;5.63;;;;;;;;;;4993417;28;20471;-52
2022/03/20 08:35:14;;;;;;;12.35;6.85;;;;;;;;;;4994688;28;20026;-53
2022/03/20 08:37:44;;;;;;;14.65;6.70;;;;;;;;;;4998169;28;20476;-55
2022/03/20 08:40:15;;;;;;;17.70;7.60;;;;;;;;;;4997613;28;20030;-53
2022/03/20 08:42:45;;;;;;;18.80;6.68;;;;;;;;;;4997647;28;20598;-52
2022/03/20 08:45:12;;;;;;;14.65;7.15;;;;;;;;;;4997754;28;20034;-51
2022/03/20 08:47:39;;;;;;;12.57;5.60;;;;;;;;;;4996759;28;20498;-54
2022/03/20 08:50:05;;;;;;;8.85;4.55;;;;;;;;;;4995691;28;20045;-53
2022/03/20 08:52:32;;;;;;;8.63;5.25;;;;;;;;;;4995683;28;20030;-53
2022/03/20 08:54:58;;;;;;;10.65;5.72;;;;;;;;;;4997027;28;20544;-52
2022/03/20 08:57:25;;;;;;;13.82;7.28;;;;;;;;;;4997516;28;20046;-53
2022/03/20 08:59:54;;;;;;;14.82;6.10;;;;;;;;;;4997335;28;20472;-54
2022/03/20 09:02:20;;;;;;;11.57;5.97;;;;;;;;;;4996724;28;20406;-52
2022/03/20 09:04:57;;;;;;;10.18;5.15;;;;;;;;;;4995595;28;20353;-55
2022/03/20 09:07:27;;;;;;;11.40;5.78;;;;;;;;;;4992137;28;20518;-55
2022/03/20 09:09:55;;;;;;;14.57;6.90;;;;;;;;;;4995777;28;20058;-49
2022/03/20 09:12:21;;;;;;;11.38;7.45;;;;;;;;;;4994917;28;20383;-52
2022/03/20 09:14:47;;;;;;;11.93;6.47;;;;;;;;;;4995958;28;20029;-50
2022/03/20 09:19:58;;;;;;;13.68;6.45;;;;;;;;;;4994686;28;20041;-51
2022/03/20 09:22:26;;;;;;;10.63;5.90;;;;;;;;;;4994193;28;20494;-53
2022/03/20 09:24:53;;;;;;;21.33;11.77;;;;;;;;;;4994707;28;20026;-54
2022/03/20 09:27:22;;;;;;;10.30;6.00;;;;;;;;;;4992637;28;20022;-49
2022/03/20 09:29:50;;;;;;;11.50;6.38;;;;;;;;;;4994440;28;20023;-50
2022/03/20 09:32:17;;;;;;;14.55;8.25;;;;;;;;;;4994445;28;20027;-52
2022/03/20 09:34:43;;;;;;;13.60;8.05;;;;;;;;;;4993237;28;20447;-50
2022/03/20 09:37:09;;;;;;;11.15;6.22;;;;;;;;;;4993922;28;21257;-56
2022/03/20 09:39:35;;;;;;;13.10;6.78;;;;;;;;;;4993632;28;20382;-52
2022/03/20 09:42:02;;;;;;;13.25;7.43;;;;;;;;;;4994059;28;20038;-48
2022/03/20 09:44:31;;;;;;;15.63;7.82;;;;;;;;;;4994060;28;20018;-47
2022/03/20 09:46:57;;;;;;;12.68;6.93;;;;;;;;;;4991671;28;20033;-50
2022/03/20 09:49:33;;;;;;;8.10;5.18;;;;;;;;;;4993998;28;20026;-51
2022/03/20 09:52:02;;;;;;;12.98;6.32;;;;;;;;;;4991634;28;20104;-53
2022/03/20 09:54:29;;;;;;;10.35;5.80;;;;;;;;;;4994413;28;20014;-53
2022/03/20 09:56:59;;;;;;;12.70;6.80;;;;;;;;;;4992466;28;20066;-53
2022/03/20 09:59:37;;;;;;;14.48;9.05;;;;;;;;;;4993554;28;20056;-53
2022/03/20 10:02:11;;;;;;;11.73;5.97;;;;;;;;;;4993003;28;20588;-55
2022/03/20 10:07:48;;;;;;;7.53;4.75;;;;;;;;;;4993853;28;20049;-52
2022/03/20 10:10:28;;;;;;;9.13;5.68;;;;;;;;;;4994841;28;20034;-50
2022/03/20 10:12:57;;;;;;;8.18;5.07;;;;;;;;;;4992835;28;20778;-52
2022/03/20 10:15:51;;;;;;;8.02;5.32;;;;;;;;;;4994539;28;20045;-55
2022/03/20 10:18:33;;;;;;;10.48;5.93;;;;;;;;;;4980584;28;20022;-55
2022/03/20 10:21:00;;;;;;;9.15;5.43;;;;;;;;;;4994322;28;20026;-54
2022/03/20 10:23:34;;;;;;;7.28;4.53;;;;;;;;;;4994212;28;20037;-53
2022/03/20 10:26:06;;;;;;;9.18;5.40;;;;;;;;;;4994034;28;20029;-58
2022/03/20 10:28:37;;;;;;;14.70;8.57;;;;;;;;;;4991398;28;20109;-55
2022/03/20 10:31:04;;;;;;;11.52;7.25;;;;;;;;;;4994395;28;20379;-51
2022/03/20 10:33:31;;;;;;;11.93;6.63;;;;;;;;;;4991565;28;20029;-50
2022/03/20 10:36:09;;;;;;;12.93;7.85;;;;;;;;;;4994280;28;20022;-53
2022/03/20 10:38:38;;;;;;;12.75;7.53;;;;;;;;;;4991786;28;20518;-51
2022/03/20 10:41:17;;;;;;;18.38;12.80;;;;;;;;;;4994180;28;20029;-52
2022/03/20 10:43:44;;;;;;;14.68;8.70;;;;;;;;;;4976180;28;20031;-50
2022/03/20 10:46:17;;;;;;;29.88;15.82;;;;;;;;;;4975758;28;20030;-49
2022/03/20 10:48:53;;;;;;;23.00;13.90;;;;;;;;;;4987114;28;20046;-54
2022/03/20 10:51:44;;;;;;;10.32;6.93;;;;;;;;;;4992314;28;20049;-53
2022/03/20 10:54:14;;;;;;;13.13;7.20;;;;;;;;;;4992715;28;20487;-53
2022/03/20 10:56:56;;;;;;;8.45;6.05;;;;;;;;;;4992736;28;20058;-56
2022/03/20 10:59:24;;;;;;;12.50;8.40;;;;;;;;;;4993857;28;20571;-53
2022/03/20 11:01:50;;;;;;;10.77;6.78;;;;;;;;;;4993999;28;20077;-48
2022/03/20 11:04:17;;;;;;;8.82;5.60;;;;;;;;;;4993554;28;20021;-46
2022/03/20 11:06:43;;;;;;;9.27;7.50;;;;;;;;;;4991137;28;20344;-51
2022/03/20 11:09:13;;;;;;;10.88;7.63;;;;;;;;;;4992221;28;20049;-54
2022/03/20 11:12:05;;;;;;;10.23;5.18;;;;;;;;;;4992521;28;20490;-58
2022/03/20 11:14:39;;;;;;;17.02;11.63;;;;;;;;;;4992713;28;20482;-52
2022/03/20 11:17:07;;;;;;;10.90;7.30;;;;;;;;;;4991014;28;20022;-53
2022/03/20 11:19:35;;;;;;;9.82;6.68;;;;;;;;;;4990257;28;20423;-55
2022/03/20 11:22:04;;;;;;;10.50;6.97;;;;;;;;;;4992639;28;20018;-51
2022/03/20 11:24:41;;;;;;;6.78;5.03;;;;;;;;;;4992743;28;20105;-52
2022/03/20 11:27:12;;;;;;;8.18;5.28;;;;;;;;;;4992053;28;20126;-51
2022/03/20 11:29:50;;;;;;;9.55;6.63;;;;;;;;;;4992377;28;20034;-60
2022/03/20 11:32:21;;;;;;;9.20;6.45;;;;;;;;;;4990973;28;20034;-55
2022/03/20 11:34:49;;;;;;;7.35;5.25;;;;;;;;;;4992070;28;20033;-53
2022/03/20 11:37:17;;;;;;;8.13;5.00;;;;;;;;;;4992124;28;20116;-55
2022/03/20 11:40:02;;;;;;;7.15;5.70;;;;;;;;;;4992260;28;20054;-50
2022/03/20 11:42:47;;;;;;;6.60;5.20;;;;;;;;;;4991572;28;20040;-50
2022/03/20 11:45:27;;;;;;;8.32;5.10;;;;;;;;;;4990479;28;20030;-54
2022/03/20 11:48:11;;;;;;;8.80;5.43;;;;;;;;;;4983225;28;20040;-55
2022/03/20 11:50:47;;;;;;;9.35;6.68;;;;;;;;;;4992213;28;20056;-55
2022/03/20 11:53:13;;;;;;;10.15;6.28;;;;;;;;;;4991592;28;20068;-52
2022/03/20 11:55:49;;;;;;;7.05;5.18;;;;;;;;;;4992141;28;20116;-50
2022/03/20 11:58:21;;;;;;;10.75;6.22;;;;;;;;;;4993423;28;20051;-54
2022/03/20 12:01:02;;;;;;;6.28;4.82;;;;;;;;;;4994232;28;20468;-50
2022/03/20 12:03:43;;;;;;;8.30;5.60;;;;;;;;;;4994336;28;20034;-52
2022/03/20 12:06:09;;;;;;;;;;;;;;;;;;4994632;28;20582;-50
2022/03/20 12:08:51;;;;;;;7.13;4.65;;;;;;;;;;4992925;28;20016;-52
2022/03/20 12:11:35;;;;;;;8.05;5.70;;;;;;;;;;4993918;28;20026;-52
2022/03/20 12:14:20;;;;;;;5.40;4.10;;;;;;;;;;4993965;28;20098;-53
2022/03/20 12:16:50;;;;;;;15.52;9.98;;;;;;;;;;4993921;28;20379;-54
2022/03/20 12:19:24;;;;;;;11.32;7.75;;;;;;;;;;4993656;28;20034;-54
2022/03/20 12:22:06;;;;;;;11.20;8.07;;;;;;;;;;4994712;28;20037;-56
2022/03/20 12:24:35;;;;;;;9.18;6.93;;;;;;;;;;4993528;28;20034;-53
2022/03/20 12:27:22;;;;;;;6.05;4.50;;;;;;;;;;4993514;28;20041;-50
2022/03/20 12:29:51;;;;;;;8.10;5.60;;;;;;;;;;4992513;28;20049;-53
2022/03/20 12:32:18;;;;;;;7.40;5.32;;;;;;;;;;4993578;28;20019;-51
2022/03/20 12:35:02;;;;;;;7.38;5.68;;;;;;;;;;4993497;28;20031;-53
2022/03/20 12:37:29;;;;;;;10.50;6.22;;;;;;;;;;4992458;28;20026;-53
2022/03/20 12:39:56;;;;;;;9.63;6.32;;;;;;;;;;4991984;28;20061;-52
2022/03/20 12:42:23;;;;;;;10.57;7.18;;;;;;;;;;4993100;28;20379;-53
2022/03/20 12:44:51;;;;;;;8.68;5.85;;;;;;;;;;4993351;28;20027;-53
2022/03/20 12:47:20;;;;;;;14.75;10.25;;;;;;;;;;4992922;28;20031;-53
2022/03/20 12:49:47;;;;;;;11.35;6.90;;;;;;;;;;4993890;28;20023;-53
2022/03/20 12:52:17;;;;;;;7.95;5.65;;;;;;;;;;4992460;28;20034;-65
2022/03/20 12:54:52;;;;;;;13.23;6.32;;;;;;;;;;4993637;28;20020;-54
2022/03/20 12:57:18;;;;;;;8.90;5.97;;;;;;;;;;4993646;28;20060;-53
2022/03/20 12:59:44;;;;;;;8.52;6.72;;;;;;;;;;4993007;28;20102;-53
2022/03/20 13:02:11;;;;;;;7.95;6.30;;;;;;;;;;4994181;28;20106;-52
2022/03/20 13:04:37;;;;;;;11.63;8.13;;;;;;;;;;4993654;28;20065;-53
2022/03/20 13:07:24;;;;;;;8.15;5.55;;;;;;;;;;4993603;28;20026;-49
2022/03/20 13:09:57;;;;;;;10.05;6.07;;;;;;;;;;4993546;28;20058;-52
2022/03/20 13:12:24;;;;;;;16.23;8.25;;;;;;;;;;4993833;28;20023;-52
2022/03/20 13:14:55;;;;;;;9.32;6.55;;;;;;;;;;4993538;28;20025;-49
2022/03/20 13:17:28;;;;;;;6.43;4.55;;;;;;;;;;4993534;28;20015;-53
2022/03/20 13:19:54;;;;;;;8.85;5.50;;;;;;;;;;4993651;28;20049;-49
2022/03/20 13:22:20;;;;;;;7.78;5.65;;;;;;;;;;4996783;28;20034;-53
2022/03/20 13:24:47;;;;;;;8.85;6.15;;;;;;;;;;4996297;28;20030;-52
2022/03/20 13:27:13;;;;;;;9.00;6.95;;;;;;;;;;4995066;28;20027;-52
2022/03/20 13:29:40;;;;;;;14.23;7.90;;;;;;;;;;4995021;28;20061;-53
2022/03/20 13:32:08;;;;;;;7.68;5.35;;;;;;;;;;4995875;28;20015;-52
2022/03/20 13:34:40;;;;;;;7.68;5.22;;;;;;;;;;4995393;28;20025;-51
2022/03/20 13:37:07;;;;;;;6.57;4.80;;;;;;;;;;4993687;28;20049;-53
2022/03/20 13:39:35;;;;;;;8.10;4.85;;;;;;;;;;4995683;28;20093;-51
2022/03/20 13:42:11;;;;;;;7.95;5.45;;;;;;;;;;4995509;28;20054;-53
2022/03/20 13:44:38;;;;;;;11.95;8.18;;;;;;;;;;4995782;28;20093;-52
2022/03/20 13:47:05;;;;;;;10.70;6.63;;;;;;;;;;4992787;28;20375;-53
2022/03/20 13:49:31;;;;;;;50.85;27.70;;;;;;;;;;4995835;28;20491;-53
2022/03/20 13:51:58;;;;;;;14.23;10.98;;;;;;;;;;4996398;28;20101;-52
2022/03/20 13:54:24;;;;;;;12.77;8.57;;;;;;;;;;4993050;28;20361;-53
2022/03/20 13:57:05;;;;;;;10.75;7.07;;;;;;;;;;4995875;28;20054;-48
2022/03/20 13:59:32;;;;;;;10.93;7.80;;;;;;;;;;4994543;28;20387;-50
2022/03/20 14:02:01;;;;;;;9.18;6.40;;;;;;;;;;4995810;28;20018;-51
2022/03/20 14:04:27;;;;;;;8.05;5.93;;;;;;;;;;4996153;28;20025;-54
2022/03/20 14:07:00;;;;;;;13.85;8.77;;;;;;;;;;4995885;28;20027;-50
2022/03/20 14:09:35;;;;;;;13.48;8.48;;;;;;;;;;4993471;28;20034;-52
2022/03/20 14:12:20;;;;;;;11.52;8.38;;;;;;;;;;4995294;28;20368;-55
2022/03/20 14:14:47;;;;;;;11.48;9.07;;;;;;;;;;4993911;28;20054;-53
2022/03/20 14:17:13;;;;;;;13.73;10.40;;;;;;;;;;4995705;28;20019;-52
2022/03/20 14:19:50;;;;;;;11.82;7.50;;;;;;;;;;4995560;28;20479;-59
2022/03/20 14:22:19;;;;;;;26.08;19.05;;;;;;;;;;4995647;28;20023;-48
2022/03/20 14:24:57;;;;;;;10.68;6.72;;;;;;;;;;4995798;28;20030;-49
2022/03/20 14:27:30;;;;;;;10.52;7.85;;;;;;;;;;4995396;28;20018;-51
2022/03/20 14:41:19;;;;;;;32.88;23.40;;;;;;;;;;4995189;28;20049;-54
2022/03/20 14:43:45;;;;;;;12.68;7.15;;;;;;;;;;4995614;28;20072;-50
2022/03/20 14:46:14;;;;;;;10.00;7.50;;;;;;;;;;4994978;28;20026;-50
2022/03/20 14:48:41;;;;;;;8.32;6.03;;;;;;;;;;4994506;28;20034;-49
2022/03/20 14:51:08;;;;;;;13.45;11.38;;;;;;;;;;4995324;28;20125;-47
2022/03/20 14:53:34;;;;;;;8.38;6.78;;;;;;;;;;4995261;28;20463;-48
2022/03/20 14:56:01;;;;;;;15.15;10.77;;;;;;;;;;4995348;28;20026;-49
2022/03/20 14:58:27;;;;;;;8.35;5.55;;;;;;;;;;4995345;28;20054;-51
2022/03/20 15:00:54;;;;;;;10.85;5.63;;;;;;;;;;4995792;28;20460;-48
2022/03/20 15:03:21;;;;;;;10.07;6.20;;;;;;;;;;4994415;28;20036;-51
2022/03/20 15:05:47;;;;;;;5.95;4.63;;;;;;;;;;4994560;28;20026;-50
2022/03/20 15:13:43;;;;;;;9.40;4.78;;;;;;;;;;4994114;28;20033;-52
2022/03/20 15:16:09;;;;;;;10.32;4.68;;;;;;;;;;4994968;28;20018;-52
2022/03/20 15:18:35;;;;;;;5.28;4.10;;;;;;;;;;4994816;28;20058;-49
2022/03/20 15:21:01;;;;;;;11.00;6.30;;;;;;;;;;4994511;28;20033;-53
2022/03/20 15:23:27;;;;;;;9.13;4.55;;;;;;;;;;4995192;28;20027;-49
2022/03/20 15:25:54;;;;;;;6.25;4.80;;;;;;;;;;4993952;28;20468;-46
2022/03/20 15:28:20;;;;;;;8.55;4.95;;;;;;;;;;4994091;28;20407;-49
2022/03/20 15:30:46;;;;;;;7.65;5.25;;;;;;;;;;4994117;28;20463;-50